TimeCST,TemperatureF,Dew PointF,Humidity,Sea Level PressureIn,VisibilityMPH,Wind Direction,Wind SpeedMPH,Gust SpeedMPH,PrecipitationIn,Events,Conditions,WindDirDegrees,DateUTC
12:15 AM,26.6,26.6,100,30.26,4.0,Calm,Calm,-,N/A,,Clear,0,2013-03-09 06:15:00
12:35 AM,24.8,23.0,93,30.25,4.0,Calm,Calm,-,N/A,,Clear,0,2013-03-09 06:35:00
12:55 AM,24.8,23.0,93,30.25,3.0,Calm,Calm,-,N/A,,Clear,0,2013-03-09 06:55:00
1:15 AM,24.8,24.8,100,30.24,3.0,Calm,Calm,-,N/A,,Clear,0,2013-03-09 07:15:00
1:35 AM,23.0,21.2,93,30.24,1.8,Calm,Calm,-,N/A,,Mist,0,2013-03-09 07:35:00
1:55 AM,23.0,23.0,100,30.23,2.5,Calm,Calm,-,N/A,,Clear,0,2013-03-09 07:55:00
2:15 AM,24.8,24.8,100,30.22,2.5,Calm,Calm,-,N/A,,Clear,0,2013-03-09 08:15:00
2:35 AM,23.0,23.0,100,30.21,3.0,Calm,Calm,-,N/A,,Clear,0,2013-03-09 08:35:00
2:55 AM,21.2,21.2,100,30.20,2.5,East,3.5,-,N/A,,Clear,100,2013-03-09 08:55:00
3:15 AM,23.0,23.0,100,30.19,4.0,Calm,Calm,-,N/A,,Clear,0,2013-03-09 09:15:00
3:35 AM,24.8,24.8,100,30.18,5.0,ESE,3.5,-,N/A,,Clear,110,2013-03-09 09:35:00
3:55 AM,26.6,24.8,93,30.18,5.0,Calm,Calm,-,N/A,,Clear,0,2013-03-09 09:55:00
4:15 AM,26.6,23.0,86,30.18,5.0,Calm,Calm,-,N/A,,Clear,0,2013-03-09 10:15:00
4:35 AM,26.6,24.8,93,30.18,7.0,Calm,Calm,-,N/A,,Clear,0,2013-03-09 10:35:00
4:55 AM,26.6,24.8,93,30.18,7.0,Calm,Calm,-,N/A,,Clear,0,2013-03-09 10:55:00
5:15 AM,26.6,23.0,86,30.19,5.0,Calm,Calm,-,N/A,,Clear,0,2013-03-09 11:15:00
5:35 AM,26.6,24.8,93,30.18,7.0,Calm,Calm,-,N/A,,Clear,0,2013-03-09 11:35:00
5:55 AM,26.6,23.0,86,30.17,7.0,Calm,Calm,-,N/A,,Mostly Cloudy,0,2013-03-09 11:55:00
6:15 AM,28.4,24.8,86,30.16,7.0,East,5.8,-,N/A,,Overcast,100,2013-03-09 12:15:00
6:35 AM,28.4,24.8,86,30.16,7.0,ESE,3.5,-,N/A,,Overcast,110,2013-03-09 12:35:00
6:55 AM,28.4,24.8,86,30.15,7.0,ESE,3.5,-,N/A,,Overcast,110,2013-03-09 12:55:00
7:15 AM,28.4,24.8,86,30.16,7.0,Calm,Calm,-,N/A,,Overcast,0,2013-03-09 13:15:00
7:35 AM,30.2,26.6,86,30.15,7.0,Calm,Calm,-,N/A,,Overcast,0,2013-03-09 13:35:00
7:55 AM,30.2,26.6,86,30.15,7.0,Calm,Calm,-,N/A,,Overcast,0,2013-03-09 13:55:00
8:15 AM,30.2,26.6,86,30.14,7.0,SE,3.5,-,N/A,,Overcast,130,2013-03-09 14:15:00
8:35 AM,32.0,26.6,80,30.14,7.0,SE,4.6,-,N/A,,Overcast,140,2013-03-09 14:35:00
8:55 AM,32.0,26.6,80,30.13,10.0,SE,3.5,-,N/A,,Overcast,140,2013-03-09 14:55:00
9:15 AM,33.8,28.4,81,30.12,10.0,SSE,5.8,-,N/A,,Overcast,160,2013-03-09 15:15:00
9:35 AM,33.8,28.4,81,30.10,10.0,SSE,10.4,-,N/A,,Overcast,160,2013-03-09 15:35:00
9:55 AM,33.8,28.4,81,30.08,5.0,SSE,10.4,-,N/A,Snow,Light Snow,160,2013-03-09 15:55:00
10:15 AM,33.8,30.2,87,30.08,2.0,SSE,11.5,-,N/A,Snow,Light Snow,160,2013-03-09 16:15:00
10:35 AM,33.8,32.0,93,30.06,2.5,SE,8.1,-,N/A,Snow,Light Snow,140,2013-03-09 16:35:00
10:55 AM,32.0,32.0,100,30.06,5.0,SSE,6.9,-,N/A,,Overcast,160,2013-03-09 16:55:00
11:15 AM,33.8,32.0,93,30.05,5.0,SSE,8.1,-,N/A,,Overcast,150,2013-03-09 17:15:00
11:35 AM,33.8,32.0,93,30.04,7.0,SSE,13.8,-,N/A,,Overcast,160,2013-03-09 17:35:00
11:55 AM,35.6,32.0,87,30.02,7.0,SE,10.4,16.1,N/A,,Overcast,140,2013-03-09 17:55:00
12:15 PM,35.6,32.0,87,30.01,10.0,SE,10.4,-,N/A,,Overcast,140,2013-03-09 18:15:00
12:35 PM,35.6,32.0,87,30.01,10.0,SE,9.2,-,N/A,,Overcast,140,2013-03-09 18:35:00
12:55 PM,35.6,32.0,87,29.99,10.0,SE,13.8,17.3,N/A,,Overcast,140,2013-03-09 18:55:00
1:15 PM,35.6,32.0,87,29.98,10.0,SE,10.4,-,N/A,,Overcast,130,2013-03-09 19:15:00
1:35 PM,35.6,32.0,87,29.97,10.0,SE,11.5,-,N/A,,Overcast,140,2013-03-09 19:35:00
1:55 PM,35.6,32.0,87,29.96,10.0,SE,11.5,-,N/A,,Overcast,140,2013-03-09 19:55:00
2:15 PM,37.4,32.0,81,29.94,10.0,ESE,10.4,-,N/A,,Overcast,110,2013-03-09 20:15:00
2:35 PM,35.6,32.0,87,29.94,10.0,SE,10.4,-,N/A,,Overcast,130,2013-03-09 20:35:00
2:55 PM,35.6,32.0,87,29.93,10.0,ESE,8.1,-,N/A,,Overcast,120,2013-03-09 20:55:00
3:15 PM,35.6,32.0,87,29.91,10.0,SE,9.2,-,N/A,,Overcast,130,2013-03-09 21:15:00
3:35 PM,35.6,32.0,87,29.91,10.0,SE,9.2,-,N/A,,Overcast,130,2013-03-09 21:35:00
3:55 PM,35.6,32.0,87,29.90,7.0,SE,10.4,-,N/A,Rain,Rain,140,2013-03-09 21:55:00
4:15 PM,33.8,32.0,93,29.90,4.0,SE,6.9,-,N/A,Rain,Rain,140,2013-03-09 22:15:00
4:35 PM,33.8,32.0,93,29.89,4.0,SE,8.1,-,0.01,Rain,Light Rain,140,2013-03-09 22:35:00
4:55 PM,33.8,32.0,93,29.88,2.5,SE,8.1,-,0.04,Rain,Rain,130,2013-03-09 22:55:00
5:15 PM,33.8,32.0,93,29.87,2.0,SE,8.1,-,0.03,Rain,Rain,140,2013-03-09 23:15:00
5:35 PM,33.8,32.0,93,29.87,2.5,SE,10.4,16.1,0.07,Rain,Rain,140,2013-03-09 23:35:00
6:15 PM,33.8,32.0,93,29.86,3.0,SE,6.9,-,0.01,Rain,Rain,140,2013-03-10 00:15:00
6:35 PM,33.8,32.0,93,29.86,4.0,SE,6.9,-,0.01,Rain,Light Rain,130,2013-03-10 00:35:00
6:55 PM,33.8,32.0,93,29.86,4.0,SSE,4.6,-,0.01,,Drizzle,150,2013-03-10 00:55:00
7:15 PM,33.8,32.0,93,29.86,3.0,SSE,4.6,-,N/A,Rain,Light Rain,150,2013-03-10 01:15:00
7:35 PM,33.8,33.8,100,29.86,3.0,SSE,3.5,-,0.02,Rain,Light Rain,150,2013-03-10 01:35:00
7:55 PM,33.8,33.8,100,29.85,2.5,SSE,5.8,-,0.04,Rain,Rain,160,2013-03-10 01:55:00
8:15 PM,33.8,33.8,100,29.85,3.0,SSE,5.8,-,0.01,Rain,Light Rain,160,2013-03-10 02:15:00
8:35 PM,33.8,33.8,100,29.84,2.5,SSE,5.8,-,0.02,Rain,Light Rain,150,2013-03-10 02:35:00
8:55 PM,33.8,33.8,100,29.84,3.0,SSE,6.9,-,0.03,Rain,Rain,150,2013-03-10 02:55:00
9:15 PM,33.8,33.8,100,29.84,3.0,SSE,5.8,-,0.01,Rain,Heavy Rain,160,2013-03-10 03:15:00
9:35 PM,33.8,33.8,100,29.84,2.5,South,4.6,-,0.01,,Heavy Drizzle,170,2013-03-10 03:35:00
9:55 PM,33.8,33.8,100,29.83,2.0,South,4.6,-,0.02,,Drizzle,170,2013-03-10 03:55:00
10:15 PM,33.8,33.8,100,29.82,2.0,SSE,5.8,-,N/A,,Light Drizzle,150,2013-03-10 04:15:00
10:35 PM,33.8,33.8,100,29.81,2.0,SSE,6.9,-,N/A,,Light Drizzle,160,2013-03-10 04:35:00
10:55 PM,33.8,33.8,100,29.82,3.0,South,5.8,-,N/A,,Overcast,180,2013-03-10 04:55:00
11:15 PM,33.8,33.8,100,29.82,3.0,SSE,4.6,-,N/A,,Overcast,160,2013-03-10 05:15:00
11:35 PM,33.8,33.8,100,29.81,3.0,SSE,3.5,-,N/A,,Heavy Drizzle,160,2013-03-10 05:35:00
11:55 PM,33.8,33.8,100,29.80,2.5,Calm,Calm,-,N/A,,Light Drizzle,0,2013-03-10 05:55:00